Time;durP1;ratioP1;P1;durP2;ratioP2;P2;SDS_P1;SDS_P2;PMS_P1;PMS_P2;Temp;Humidity;BMP_temperature;BMP_pressure;BME280_temperature;BME280_humidity;BME280_pressure;Samples;Min_cycle;Max_cycle;Signal;HPM_P1;HPM_P2
2024/01/02 00:01:25;;;;;;;0.00;0.00;;;7.80;1.00;;;;;;5057490;28;20037;-62
2024/01/02 00:03:51;;;;;;;0.00;0.00;;;7.90;1.00;;;;;;5061203;28;20067;-62
2024/01/02 00:06:17;;;;;;;0.00;0.00;;;7.90;1.00;;;;;;5060990;28;20032;-62
2024/01/02 00:08:43;;;;;;;0.00;0.00;;;7.90;1.00;;;;;;5059494;28;20044;-62
2024/01/02 00:11:09;;;;;;;0.43;0.13;;;8.00;1.00;;;;;;5058913;28;20112;-62
2024/01/02 00:13:35;;;;;;;0.00;0.00;;;7.90;1.00;;;;;;5063105;28;20032;-62
2024/01/02 00:16:01;;;;;;;0.00;0.00;;;7.90;1.00;;;;;;5051111;28;20384;-62
2024/01/02 00:18:26;;;;;;;0.10;0.10;;;7.90;1.00;;;;;;5058156;28;21001;-62
2024/01/02 00:20:52;;;;;;;0.10;0.10;;;7.90;1.00;;;;;;5057786;28;20037;-62
2024/01/02 00:23:18;;;;;;;2.50;0.38;;;7.90;1.00;;;;;;5059785;28;20062;-62
2024/01/02 00:25:43;;;;;;;0.00;0.00;;;7.80;1.00;;;;;;5061227;28;20552;-62
2024/01/02 00:28:12;;;;;;;0.00;0.00;;;7.90;46.70;;;;;;5058849;28;20023;-62
2024/01/02 00:30:39;;;;;;;0.00;0.00;;;7.90;55.30;;;;;;5059826;28;20476;-62
2024/01/02 00:33:05;;;;;;;0.00;0.00;;;7.90;99.90;;;;;;5059617;28;20538;-61
2024/01/02 00:35:31;;;;;;;0.82;0.10;;;7.90;99.90;;;;;;5041280;28;20039;-62
2024/01/02 00:37:57;;;;;;;0.00;0.00;;;7.90;99.90;;;;;;5059586;28;20064;-61
2024/01/02 00:40:23;;;;;;;0.00;0.00;;;7.90;99.90;;;;;;5058959;28;20031;-62
2024/01/02 00:42:48;;;;;;;0.00;0.00;;;7.90;99.90;;;;;;5059811;28;20192;-60
2024/01/02 00:45:14;;;;;;;0.00;0.00;;;8.00;99.90;;;;;;5059349;28;20458;-59
2024/01/02 00:47:40;;;;;;;0.00;0.00;;;7.90;99.90;;;;;;5060725;28;20029;-60
2024/01/02 00:50:06;;;;;;;0.10;0.10;;;7.90;99.90;;;;;;5059265;28;20031;-60
2024/01/02 00:52:31;;;;;;;0.00;0.00;;;7.80;99.90;;;;;;5059759;28;20025;-57
2024/01/02 00:54:57;;;;;;;0.00;0.00;;;7.90;99.90;;;;;;5060242;28;20040;-57
2024/01/02 00:57:23;;;;;;;0.00;0.00;;;7.90;99.90;;;;;;5059206;28;20131;-58
2024/01/02 00:59:48;;;;;;;0.00;0.00;;;7.90;99.90;;;;;;5060963;28;20432;-58
2024/01/02 01:02:14;;;;;;;0.08;0.08;;;8.00;99.90;;;;;;5057428;28;20040;-57
2024/01/02 01:04:43;;;;;;;0.10;0.00;;;7.90;99.90;;;;;;5058342;28;20125;-58
2024/01/02 01:07:09;;;;;;;0.20;0.10;;;7.90;99.90;;;;;;5059099;28;20404;-56
2024/01/02 01:09:35;;;;;;;0.00;0.00;;;7.90;99.90;;;;;;5058907;28;20483;-59
2024/01/02 01:12:02;;;;;;;0.00;0.00;;;7.90;99.90;;;;;;5060784;28;20040;-58
2024/01/02 01:14:28;;;;;;;0.10;0.00;;;7.90;99.90;;;;;;5055231;28;20122;-57
2024/01/02 01:16:54;;;;;;;0.00;0.00;;;7.90;99.90;;;;;;5055771;28;20507;-58
2024/01/02 01:19:19;;;;;;;0.08;0.08;;;7.90;99.90;;;;;;5059694;28;20041;-57
2024/01/02 01:21:45;;;;;;;0.00;0.00;;;7.90;99.90;;;;;;5059722;28;20049;-58
2024/01/02 01:24:10;;;;;;;0.00;0.00;;;7.80;99.90;;;;;;5058161;28;20398;-60
2024/01/02 01:26:36;;;;;;;4.75;0.65;;;7.70;99.90;;;;;;5059318;28;20120;-59
2024/01/02 01:29:02;;;;;;;0.13;0.13;;;7.80;99.90;;;;;;5058552;28;20056;-60
2024/01/02 01:31:28;;;;;;;0.00;0.00;;;7.80;99.90;;;;;;5060749;28;20451;-60
2024/01/02 01:33:54;;;;;;;0.00;0.00;;;7.80;99.90;;;;;;5059590;28;20162;-59
2024/01/02 01:36:19;;;;;;;0.00;0.00;;;7.80;99.90;;;;;;5057587;28;20573;-59
2024/01/02 01:38:45;;;;;;;0.00;0.00;;;7.80;99.90;;;;;;5059843;28;20044;-60
2024/01/02 01:41:11;;;;;;;1.13;0.25;;;7.80;99.90;;;;;;5058624;28;20063;-60
2024/01/02 01:43:36;;;;;;;0.00;0.00;;;7.90;99.90;;;;;;5058867;28;20067;-59
2024/01/02 01:46:03;;;;;;;0.00;0.00;;;7.90;99.90;;;;;;5035953;28;20029;-59
2024/01/02 01:48:29;;;;;;;0.25;0.25;;;7.80;99.90;;;;;;5055896;28;20115;-59
2024/01/02 01:50:55;;;;;;;0.45;0.45;;;7.80;99.90;;;;;;5038594;28;20638;-59
2024/01/02 01:53:22;;;;;;;0.63;0.40;;;7.70;99.90;;;;;;5058310;28;20660;-61
2024/01/02 01:55:48;;;;;;;0.00;0.00;;;7.80;99.90;;;;;;5058594;28;20040;-61
2024/01/02 01:58:14;;;;;;;0.70;0.70;;;7.70;99.90;;;;;;5056951;28;20041;-61
2024/01/02 02:00:40;;;;;;;0.05;0.05;;;7.80;99.90;;;;;;5058508;28;20024;-61
2024/01/02 02:03:06;;;;;;;0.00;0.00;;;7.90;99.90;;;;;;5056643;28;20028;-61
2024/01/02 02:05:34;;;;;;;0.08;0.08;;;7.80;99.90;;;;;;5057506;28;20035;-60
2024/01/02 02:07:59;;;;;;;0.38;0.05;;;7.80;99.90;;;;;;5059113;28;20152;-61
2024/01/02 02:10:25;;;;;;;0.13;0.08;;;7.80;99.90;;;;;;5057557;28;20166;-62
2024/01/02 02:12:51;;;;;;;0.10;0.10;;;7.80;99.90;;;;;;5057241;28;20724;-62
2024/01/02 02:15:16;;;;;;;0.10;0.10;;;7.80;99.90;;;;;;5058321;28;20123;-61
2024/01/02 02:17:42;;;;;;;0.10;0.03;;;7.80;99.90;;;;;;5058938;28;20360;-61
2024/01/02 02:20:08;;;;;;;0.85;0.20;;;7.80;99.90;;;;;;5056286;28;20520;-61
2024/01/02 02:22:35;;;;;;;2.90;0.32;;;7.80;99.90;;;;;;5058594;28;20032;-62
2024/01/02 02:25:06;;;;;;;0.00;0.00;;;7.70;99.90;;;;;;5057949;28;20032;-61
2024/01/02 02:27:33;;;;;;;0.00;0.00;;;7.70;99.90;;;;;;5056526;28;20572;-60
2024/01/02 02:29:58;;;;;;;0.00;0.00;;;7.70;99.90;;;;;;5057431;28;20036;-61
2024/01/02 02:32:24;;;;;;;0.40;0.30;;;7.70;99.90;;;;;;5056763;28;20127;-61
2024/01/02 02:34:50;;;;;;;0.10;0.10;;;7.70;99.90;;;;;;5058725;28;20076;-60
2024/01/02 02:37:15;;;;;;;0.05;0.05;;;7.50;99.90;;;;;;5058857;28;20354;-61
2024/01/02 02:39:41;;;;;;;0.30;0.30;;;7.80;99.90;;;;;;5058434;28;20074;-61
2024/01/02 02:42:06;;;;;;;0.22;0.17;;;7.80;99.90;;;;;;5056828;28;20033;-61
2024/01/02 02:44:33;;;;;;;0.15;0.10;;;7.70;99.90;;;;;;5059752;28;20637;-62
2024/01/02 02:46:58;;;;;;;2.13;0.38;;;7.80;99.90;;;;;;5038366;28;20036;-61
2024/01/02 02:49:25;;;;;;;0.00;0.00;;;7.70;99.90;;;;;;5058110;28;20051;-62
2024/01/02 02:51:51;;;;;;;0.00;0.00;;;7.70;99.90;;;;;;5058038;28;20037;-62
2024/01/02 02:54:16;;;;;;;0.35;0.35;;;7.70;99.90;;;;;;5059156;28;20810;-61
2024/01/02 02:56:43;;;;;;;0.00;0.00;;;7.70;99.90;;;;;;5059110;28;20036;-62
2024/01/02 02:59:10;;;;;;;0.00;0.00;;;7.70;99.90;;;;;;5057784;28;20082;-61
2024/01/02 03:01:36;;;;;;;0.10;0.10;;;7.60;99.90;;;;;;5052107;28;20041;-61
2024/01/02 03:04:02;;;;;;;0.00;0.00;;;7.70;99.90;;;;;;5053306;28;20474;-61
2024/01/02 03:06:27;;;;;;;0.00;0.00;;;7.70;99.90;;;;;;5057779;28;20033;-61
2024/01/02 03:08:53;;;;;;;0.38;0.38;;;7.70;99.90;;;;;;5063622;28;20047;-62
2024/01/02 03:11:19;;;;;;;0.10;0.00;;;7.70;99.90;;;;;;5064120;28;20028;-62
2024/01/02 03:13:44;;;;;;;0.00;0.00;;;7.80;99.90;;;;;;5061244;28;20050;-62
2024/01/02 03:16:10;;;;;;;0.00;0.00;;;7.80;99.90;;;;;;5058966;28;20032;-61
2024/01/02 03:18:36;;;;;;;1.05;0.50;;;7.80;99.90;;;;;;5059853;28;20067;-61
2024/01/02 03:21:01;;;;;;;0.05;0.05;;;7.80;99.90;;;;;;5061622;28;20123;-62
2024/01/02 03:23:27;;;;;;;0.00;0.00;;;7.70;99.90;;;;;;5061860;28;20029;-61
2024/01/02 03:25:53;;;;;;;0.00;0.00;;;7.60;99.90;;;;;;5060991;28;20033;-61
2024/01/02 03:28:18;;;;;;;0.80;0.00;;;7.60;99.90;;;;;;5057443;28;20052;-61
2024/01/02 03:30:44;;;;;;;0.10;0.00;;;7.60;99.90;;;;;;5060713;28;20482;-60
2024/01/02 03:33:09;;;;;;;0.00;0.00;;;7.70;99.90;;;;;;5060048;28;20392;-61
2024/01/02 03:35:35;;;;;;;0.32;0.32;;;7.70;99.90;;;;;;5060814;28;20062;-61
2024/01/02 03:38:01;;;;;;;0.00;0.00;;;7.70;99.90;;;;;;5058791;28;20972;-61
2024/01/02 03:40:26;;;;;;;0.60;0.60;;;7.70;99.90;;;;;;5062620;28;20554;-61
2024/01/02 03:42:52;;;;;;;0.00;0.00;;;7.70;99.90;;;;;;5062431;28;20436;-62
2024/01/02 03:45:17;;;;;;;0.00;0.00;;;7.70;99.90;;;;;;5059630;28;20032;-62
2024/01/02 03:47:43;;;;;;;0.00;0.00;;;7.80;99.90;;;;;;5060521;28;20032;-62
2024/01/02 03:50:09;;;;;;;1.85;0.03;;;7.80;99.90;;;;;;5059031;28;20061;-61
2024/01/02 03:52:34;;;;;;;0.00;0.00;;;7.80;99.90;;;;;;5060226;28;20032;-62
2024/01/02 03:55:00;;;;;;;0.40;0.40;;;7.80;99.90;;;;;;5060287;28;21209;-62
2024/01/02 03:57:26;;;;;;;0.00;0.00;;;7.80;99.90;;;;;;5061117;28;20040;-62
2024/01/02 03:59:53;;;;;;;0.00;0.00;;;7.70;99.90;;;;;;5059847;28;20042;-62
2024/01/02 04:02:19;;;;;;;0.00;0.00;;;7.70;99.90;;;;;;5061007;28;20475;-62
2024/01/02 04:04:44;;;;;;;0.38;0.38;;;7.60;99.90;;;;;;5058561;28;20079;-62
2024/01/02 04:07:10;;;;;;;0.00;0.00;;;7.70;99.90;;;;;;5060428;28;20055;-61
2024/01/02 04:09:35;;;;;;;0.00;0.00;;;7.70;99.90;;;;;;5059576;28;20124;-62
2024/01/02 04:12:01;;;;;;;0.00;0.00;;;7.80;99.90;;;;;;5060438;28;20227;-62
2024/01/02 04:14:26;;;;;;;3.20;2.35;;;7.70;99.90;;;;;;5062223;28;20102;-62
2024/01/02 04:16:52;;;;;;;0.00;0.00;;;7.70;99.90;;;;;;5062500;28;20448;-62
2024/01/02 04:19:18;;;;;;;0.00;0.00;;;7.70;99.90;;;;;;5061466;28;20043;-62
2024/01/02 04:21:43;;;;;;;0.00;0.00;;;7.70;99.90;;;;;;5061452;28;20043;-62
2024/01/02 04:24:09;;;;;;;0.00;0.00;;;7.70;99.90;;;;;;5059942;28;20099;-62
2024/01/02 04:26:34;;;;;;;0.00;0.00;;;7.60;99.90;;;;;;5042345;28;20423;-62
2024/01/02 04:29:01;;;;;;;0.08;0.00;;;7.60;99.90;;;;;;5058792;28;20071;-61
2024/01/02 04:31:27;;;;;;;0.00;0.00;;;7.60;99.90;;;;;;5051535;28;20041;-62
2024/01/02 04:33:52;;;;;;;0.10;0.10;;;7.60;99.90;;;;;;5059232;28;20024;-61
2024/01/02 04:36:18;;;;;;;0.08;0.00;;;7.60;99.90;;;;;;5059709;28;20032;-61
2024/01/02 04:38:44;;;;;;;0.13;0.13;;;7.60;99.90;;;;;;5059603;28;20037;-61
2024/01/02 04:41:11;;;;;;;0.10;0.08;;;7.70;99.90;;;;;;5059367;28;20038;-62
2024/01/02 04:43:37;;;;;;;0.00;0.00;;;7.70;99.90;;;;;;5058848;28;20116;-62
2024/01/02 04:46:03;;;;;;;0.00;0.00;;;7.60;99.90;;;;;;5058720;28;20170;-61
2024/01/02 04:48:28;;;;;;;0.22;0.22;;;7.70;99.90;;;;;;5059698;28;20048;-62
2024/01/02 04:50:54;;;;;;;0.00;0.00;;;7.70;99.90;;;;;;5054910;28;20040;-61
2024/01/02 04:53:19;;;;;;;0.40;0.40;;;7.70;99.90;;;;;;5058322;28;20028;-61
2024/01/02 04:55:45;;;;;;;0.00;0.00;;;7.80;99.90;;;;;;5059609;28;20044;-62
2024/01/02 04:58:11;;;;;;;0.20;0.10;;;7.70;99.90;;;;;;5058387;28;20276;-62
2024/01/02 05:00:36;;;;;;;0.00;0.00;;;7.80;99.90;;;;;;5058723;28;20396;-62
2024/01/02 05:03:02;;;;;;;0.10;0.10;;;7.90;99.90;;;;;;5057810;28;20353;-61
2024/01/02 05:05:28;;;;;;;0.10;0.00;;;7.90;99.90;;;;;;5060066;28;20673;-62
2024/01/02 05:07:53;;;;;;;0.00;0.00;;;7.90;99.90;;;;;;5060710;28;20044;-62
2024/01/02 05:10:19;;;;;;;0.00;0.00;;;7.90;99.90;;;;;;5040387;28;27320;-62
2024/01/02 05:12:45;;;;;;;0.10;0.00;;;7.90;99.90;;;;;;5058685;28;20021;-62
2024/01/02 05:15:10;;;;;;;0.10;0.00;;;7.90;99.90;;;;;;5057852;28;20443;-61
2024/01/02 05:17:36;;;;;;;0.10;0.10;;;7.90;99.90;;;;;;5059145;28;20037;-62
2024/01/02 05:20:03;;;;;;;0.30;0.30;;;7.90;99.90;;;;;;5058917;28;20124;-61
2024/01/02 05:22:29;;;;;;;0.10;0.10;;;8.00;99.90;;;;;;5060911;28;20036;-60
2024/01/02 05:24:54;;;;;;;0.10;0.00;;;8.00;99.90;;;;;;5058815;28;20040;-59
2024/01/02 05:27:20;;;;;;;0.00;0.00;;;8.00;99.90;;;;;;5059064;28;20036;-60
2024/01/02 05:29:45;;;;;;;0.00;0.00;;;8.00;99.90;;;;;;5057982;28;20040;-60
2024/01/02 05:32:11;;;;;;;0.10;0.00;;;7.90;99.90;;;;;;5058404;28;20033;-59
2024/01/02 05:34:37;;;;;;;0.10;0.10;;;8.00;99.90;;;;;;5061864;28;20511;-60
2024/01/02 05:37:02;;;;;;;0.00;0.00;;;8.10;99.90;;;;;;5060131;28;20036;-60
2024/01/02 05:39:28;;;;;;;0.00;0.00;;;8.10;99.90;;;;;;5058901;28;20033;-60
2024/01/02 05:41:54;;;;;;;0.00;0.00;;;8.10;99.90;;;;;;5059301;28;20360;-60
2024/01/02 05:44:19;;;;;;;0.00;0.00;;;8.10;99.90;;;;;;5060958;28;20029;-60
2024/01/02 05:46:45;;;;;;;0.00;0.00;;;8.20;99.90;;;;;;5058521;28;20067;-61
2024/01/02 05:49:10;;;;;;;0.00;0.00;;;8.20;99.90;;;;;;5058804;28;20074;-60
2024/01/02 05:51:36;;;;;;;0.43;0.43;;;8.30;99.90;;;;;;5059517;28;20068;-59
2024/01/02 05:54:02;;;;;;;0.00;0.00;;;8.40;99.90;;;;;;5058260;28;20040;-61
2024/01/02 05:56:27;;;;;;;0.08;0.00;;;8.40;99.90;;;;;;5059180;28;20039;-60
2024/01/02 05:58:53;;;;;;;0.00;0.00;;;8.50;99.90;;;;;;5057992;28;20456;-60
2024/01/02 06:01:19;;;;;;;0.00;0.00;;;8.60;99.90;;;;;;5057313;28;20040;-61
2024/01/02 06:03:44;;;;;;;1.13;0.05;;;8.80;99.90;;;;;;5059507;28;20412;-61
2024/01/02 06:06:10;;;;;;;0.00;0.00;;;8.90;99.90;;;;;;5055688;28;20056;-60
2024/01/02 06:08:36;;;;;;;0.10;0.10;;;9.10;99.90;;;;;;5056180;28;20040;-61
2024/01/02 06:11:01;;;;;;;0.00;0.00;;;9.20;99.90;;;;;;5058672;28;20592;-61
2024/01/02 06:13:28;;;;;;;0.43;0.43;;;9.30;99.90;;;;;;5057960;28;20442;-61
2024/01/02 06:15:53;;;;;;;0.20;0.20;;;9.40;99.90;;;;;;5055263;28;20587;-61
2024/01/02 06:18:19;;;;;;;0.20;0.20;;;9.40;99.90;;;;;;5057118;28;20059;-60
2024/01/02 06:20:45;;;;;;;0.00;0.00;;;9.50;99.90;;;;;;5058037;28;20514;-62
2024/01/02 06:23:10;;;;;;;0.00;0.00;;;9.60;99.90;;;;;;5056934;28;20064;-61
2024/01/02 06:25:36;;;;;;;0.05;0.05;;;9.60;99.90;;;;;;5059143;28;20025;-61
2024/01/02 06:28:01;;;;;;;0.10;0.10;;;9.70;99.90;;;;;;5039039;28;20531;-61
2024/01/02 06:30:27;;;;;;;0.00;0.00;;;9.70;99.90;;;;;;5058407;28;20388;-61
2024/01/02 06:32:53;;;;;;;0.00;0.00;;;9.80;99.90;;;;;;5057490;28;20412;-62
2024/01/02 06:35:19;;;;;;;0.00;0.00;;;9.80;99.90;;;;;;5057397;28;20045;-61
2024/01/02 06:37:45;;;;;;;0.17;0.17;;;9.90;99.90;;;;;;5057752;28;20036;-62
2024/01/02 06:40:10;;;;;;;0.00;0.00;;;9.90;99.90;;;;;;5056180;28;20033;-62
2024/01/02 06:42:36;;;;;;;0.10;0.00;;;10.00;99.90;;;;;;5060329;28;20102;-62
2024/01/02 06:45:01;;;;;;;0.00;0.00;;;10.00;99.90;;;;;;5060676;28;20491;-62
2024/01/02 06:47:27;;;;;;;0.10;0.10;;;10.00;99.90;;;;;;5051035;28;20037;-61
2024/01/02 06:49:53;;;;;;;0.10;0.00;;;10.10;99.90;;;;;;5060432;28;20365;-60
2024/01/02 06:52:18;;;;;;;0.10;0.00;;;10.10;99.90;;;;;;5061140;28;20403;-62
2024/01/02 06:54:44;;;;;;;0.10;0.00;;;10.10;99.90;;;;;;5061692;28;20040;-60
2024/01/02 06:57:10;;;;;;;0.15;0.10;;;10.10;99.90;;;;;;5061755;28;20429;-61
2024/01/02 06:59:36;;;;;;;0.50;0.50;;;10.20;99.90;;;;;;5046013;28;20037;-61
2024/01/02 07:02:02;;;;;;;0.10;0.10;;;10.30;99.90;;;;;;5060666;28;20044;-63
2024/01/02 07:04:28;;;;;;;0.00;0.00;;;10.30;99.90;;;;;;5060978;28;20563;-61
2024/01/02 07:06:53;;;;;;;0.10;0.10;;;10.30;99.90;;;;;;5060345;28;20040;-61
2024/01/02 07:09:19;;;;;;;0.00;0.00;;;10.40;99.90;;;;;;5043890;28;20086;-61
2024/01/02 07:11:45;;;;;;;0.10;0.10;;;10.40;99.90;;;;;;5058334;28;20045;-62
2024/01/02 07:14:11;;;;;;;0.00;0.00;;;10.50;99.90;;;;;;5061398;28;20053;-61
2024/01/02 07:16:37;;;;;;;0.00;0.00;;;10.50;99.90;;;;;;5059132;28;20044;-61
2024/01/02 07:19:03;;;;;;;0.03;0.03;;;10.60;99.90;;;;;;5057654;28;20059;-61
2024/01/02 07:21:29;;;;;;;0.00;0.00;;;10.70;99.90;;;;;;5045072;28;20032;-62
2024/01/02 07:23:54;;;;;;;0.00;0.00;;;10.70;99.90;;;;;;5059879;28;20134;-61
2024/01/02 07:26:20;;;;;;;0.90;0.90;;;10.70;99.90;;;;;;5060307;28;20528;-61
2024/01/02 07:28:45;;;;;;;0.00;0.00;;;10.70;99.90;;;;;;5056444;28;20109;-59
2024/01/02 07:31:11;;;;;;;0.25;0.03;;;10.70;99.90;;;;;;5060181;28;20039;-59
2024/01/02 07:33:37;;;;;;;0.30;0.15;;;10.70;99.90;;;;;;5063185;28;20035;-59
2024/01/02 07:36:03;;;;;;;0.00;0.00;;;10.80;99.90;;;;;;5040329;28;20036;-60
2024/01/02 07:38:30;;;;;;;0.80;0.80;;;10.80;99.90;;;;;;5060368;28;20044;-60
2024/01/02 07:40:55;;;;;;;0.32;0.30;;;10.90;99.90;;;;;;5062442;28;20028;-60
2024/01/02 07:43:22;;;;;;;0.25;0.00;;;10.90;99.90;;;;;;5061273;28;20454;-60
2024/01/02 07:45:48;;;;;;;0.00;0.00;;;10.90;99.90;;;;;;5060340;28;20077;-59
2024/01/02 07:48:14;;;;;;;0.20;0.20;;;10.90;99.90;;;;;;5059772;28;20098;-59
2024/01/02 07:50:39;;;;;;;0.00;0.00;;;10.90;99.90;;;;;;5059458;28;20111;-61
2024/01/02 07:53:05;;;;;;;0.00;0.00;;;10.90;99.90;;;;;;5058940;28;20025;-60
2024/01/02 07:55:31;;;;;;;0.10;0.00;;;10.90;99.90;;;;;;5059879;28;20032;-62
2024/01/02 07:57:57;;;;;;;0.10;0.10;;;11.00;99.90;;;;;;5058106;28;20029;-62
2024/01/02 08:00:23;;;;;;;16.00;0.90;;;11.00;99.90;;;;;;5059428;28;20455;-61
2024/01/02 08:02:49;;;;;;;0.10;0.10;;;11.00;99.90;;;;;;5054386;28;20037;-63
2024/01/02 08:05:14;;;;;;;0.00;0.00;;;11.00;99.90;;;;;;5058240;28;20094;-62
2024/01/02 08:07:40;;;;;;;0.05;0.00;;;11.00;99.90;;;;;;5060971;28;20032;-63
2024/01/02 08:10:07;;;;;;;0.00;0.00;;;11.00;99.90;;;;;;5055790;28;20055;-63
2024/01/02 08:12:32;;;;;;;0.10;0.08;;;11.10;99.90;;;;;;5059173;28;20075;-60
2024/01/02 08:14:58;;;;;;;0.00;0.00;;;11.20;99.90;;;;;;5059081;28;20059;-59
2024/01/02 08:17:23;;;;;;;0.00;0.00;;;11.10;99.90;;;;;;5060153;28;20033;-60
2024/01/02 08:19:51;;;;;;;0.00;0.00;;;11.10;99.90;;;;;;5058706;28;20040;-63
2024/01/02 08:22:18;;;;;;;0.00;0.00;;;11.10;99.90;;;;;;5052377;28;20515;-63
2024/01/02 08:24:44;;;;;;;0.20;0.20;;;11.10;99.90;;;;;;5058068;28;20033;-64
2024/01/02 08:27:10;;;;;;;0.20;0.20;;;11.10;99.90;;;;;;5052796;28;20086;-62
2024/01/02 08:29:35;;;;;;;0.03;0.03;;;11.20;99.90;;;;;;5051740;28;20040;-62
2024/01/02 08:32:02;;;;;;;0.40;0.13;;;11.10;99.90;;;;;;5057403;28;20036;-62
2024/01/02 08:34:28;;;;;;;0.38;0.38;;;11.10;99.90;;;;;;5059450;28;20491;-63
2024/01/02 08:36:54;;;;;;;0.00;0.00;;;11.20;99.90;;;;;;5058101;28;20032;-62
2024/01/02 08:39:19;;;;;;;0.00;0.00;;;11.30;99.90;;;;;;5059038;28;20044;-62
2024/01/02 08:41:45;;;;;;;0.00;0.00;;;11.30;99.90;;;;;;5057949;28;20039;-63
2024/01/02 08:44:10;;;;;;;0.35;0.08;;;11.30;99.90;;;;;;5051928;28;20036;-64
2024/01/02 08:46:36;;;;;;;0.00;0.00;;;11.30;99.90;;;;;;5057366;28;20036;-64
2024/01/02 08:49:02;;;;;;;0.00;0.00;;;11.30;99.90;;;;;;5058623;28;20119;-63
2024/01/02 08:51:28;;;;;;;0.00;0.00;;;11.30;99.90;;;;;;5042347;28;20111;-63
2024/01/02 08:53:53;;;;;;;0.00;0.00;;;11.30;99.90;;;;;;5059800;28;20123;-63
2024/01/02 08:56:21;;;;;;;0.00;0.00;;;11.30;99.90;;;;;;5057525;28;21575;-63
2024/01/02 08:58:46;;;;;;;0.00;0.00;;;11.40;99.90;;;;;;5060385;28;20131;-64
2024/01/02 09:01:13;;;;;;;0.00;0.00;;;11.40;99.90;;;;;;5060157;28;20143;-65
2024/01/02 09:03:38;;;;;;;0.13;0.13;;;11.40;99.90;;;;;;5053913;28;20490;-63
2024/01/02 09:06:04;;;;;;;0.00;0.00;;;11.40;99.90;;;;;;5058663;28;20047;-63
2024/01/02 09:08:30;;;;;;;0.00;0.00;;;11.40;99.90;;;;;;5059023;28;20032;-63
2024/01/02 09:10:56;;;;;;;0.00;0.00;;;11.50;99.90;;;;;;5060563;28;20158;-65
2024/01/02 09:13:22;;;;;;;0.00;0.00;;;11.40;99.90;;;;;;5058306;28;20445;-64
2024/01/02 09:15:47;;;;;;;0.20;0.10;;;11.50;99.90;;;;;;5043227;28;20036;-63
2024/01/02 09:18:13;;;;;;;0.00;0.00;;;11.50;99.90;;;;;;5034968;28;20381;-64
2024/01/02 09:20:38;;;;;;;0.00;0.00;;;11.40;99.90;;;;;;5056726;28;20527;-63
2024/01/02 09:23:04;;;;;;;0.47;0.20;;;11.50;99.90;;;;;;5052917;28;20114;-64
2024/01/02 09:25:31;;;;;;;0.00;0.00;;;11.50;99.90;;;;;;5059191;28;20809;-63
2024/01/02 09:27:59;;;;;;;0.00;0.00;;;11.50;99.90;;;;;;5053572;28;20048;-64
2024/01/02 09:30:25;;;;;;;0.10;0.00;;;11.50;99.90;;;;;;5057607;28;20035;-64
2024/01/02 09:32:51;;;;;;;0.00;0.00;;;11.60;99.90;;;;;;5059660;28;20028;-66
2024/01/02 09:35:17;;;;;;;0.38;0.38;;;11.60;99.90;;;;;;5057498;28;20028;-66
2024/01/02 09:37:44;;;;;;;0.00;0.00;;;11.60;99.90;;;;;;5059634;28;20052;-66
2024/01/02 09:40:34;;;;;;;0.10;0.10;;;11.50;99.90;;;;;;5056111;28;20044;-66
2024/01/02 09:43:42;;;;;;;0.17;0.17;;;11.60;99.90;;;;;;5065230;28;20037;-68
2024/01/02 09:46:25;;;;;;;0.00;0.00;;;11.70;99.90;;;;;;5023070;28;20641;-66
2024/01/02 09:49:00;;;;;;;;;;;11.60;99.90;;;;;;5059415;28;20484;-65
2024/01/02 09:51:31;;;;;;;0.00;0.00;;;11.60;99.90;;;;;;5054369;28;20356;-66
2024/01/02 09:54:31;;;;;;;0.00;0.00;;;11.60;99.90;;;;;;5040569;28;20090;-66
2024/01/02 09:57:04;;;;;;;0.20;0.15;;;11.60;99.90;;;;;;5054809;28;20040;-66
2024/01/02 09:59:36;;;;;;;12.05;0.35;;;11.50;99.90;;;;;;5053288;28;20036;-65
2024/01/02 10:02:12;;;;;;;0.00;0.00;;;11.50;99.90;;;;;;5050245;28;20545;-66
2024/01/02 10:04:46;;;;;;;0.17;0.10;;;11.50;99.90;;;;;;5052532;28;20094;-66
2024/01/02 10:07:24;;;;;;;0.00;0.00;;;11.60;99.90;;;;;;5047297;28;20033;-65
2024/01/02 10:10:12;;;;;;;0.30;0.30;;;11.60;99.90;;;;;;5039904;28;20123;-65
2024/01/02 10:13:14;;;;;;;0.00;0.00;;;11.60;99.90;;;;;;5029897;28;20128;-65
2024/01/02 10:16:30;;;;;;;0.00;0.00;;;11.60;99.90;;;;;;5055743;28;20055;-65
2024/01/02 10:19:07;;;;;;;0.20;0.10;;;11.60;99.90;;;;;;4960886;28;20046;-65
2024/01/02 10:21:57;;;;;;;0.00;0.00;;;11.50;99.90;;;;;;5047723;28;20569;-65
2024/01/02 10:24:37;;;;;;;0.00;0.00;;;11.60;99.90;;;;;;5060766;28;20033;-63
2024/01/02 10:27:10;;;;;;;0.00;0.00;;;11.70;99.90;;;;;;5060634;28;20029;-63
2024/01/02 10:30:08;;;;;;;0.00;0.00;;;11.70;99.90;;;;;;5062603;28;20045;-63
2024/01/02 10:33:05;;;;;;;0.75;0.45;;;11.70;99.90;;;;;;5052600;28;20029;-64
2024/01/02 10:35:52;;;;;;;0.00;0.00;;;11.70;99.90;;;;;;5053352;28;20044;-63
2024/01/02 10:38:34;;;;;;;0.22;0.22;;;11.70;99.90;;;;;;5061592;28;20107;-64
2024/01/02 10:41:20;;;;;;;0.00;0.00;;;11.70;99.90;;;;;;5060573;28;20063;-63
2024/01/02 10:44:21;;;;;;;0.10;0.10;;;11.60;99.90;;;;;;5051185;28;20036;-63
2024/01/02 10:47:05;;;;;;;0.40;0.10;;;11.70;99.90;;;;;;5016993;28;20102;-63
2024/01/02 10:49:40;;;;;;;0.00;0.00;;;11.70;99.90;;;;;;5052951;28;20036;-63
2024/01/02 10:52:18;;;;;;;0.00;0.00;;;11.60;99.90;;;;;;5044685;28;20111;-66
2024/01/02 10:54:53;;;;;;;0.00;0.00;;;11.70;99.90;;;;;;5058553;28;20075;-66
2024/01/02 10:57:40;;;;;;;0.00;0.00;;;11.70;99.90;;;;;;5059961;28;20094;-66
2024/01/02 11:00:08;;;;;;;0.55;0.10;;;11.70;99.90;;;;;;5055806;28;20058;-66
2024/01/02 11:02:57;;;;;;;0.00;0.00;;;11.60;99.90;;;;;;5056124;28;20036;-66
2024/01/02 11:05:30;;;;;;;0.10;0.00;;;11.70;99.90;;;;;;5056933;28;20400;-66
2024/01/02 11:08:06;;;;;;;0.10;0.00;;;11.70;99.90;;;;;;5059256;28;20040;-66
2024/01/02 11:10:41;;;;;;;0.00;0.00;;;11.70;99.90;;;;;;5060583;28;20097;-66
2024/01/02 11:13:10;;;;;;;0.00;0.00;;;11.70;99.90;;;;;;5059548;28;20062;-66
2024/01/02 11:15:38;;;;;;;0.00;0.00;;;;;;;;;;5062596;28;20032;-66
2024/01/02 11:18:07;;;;;;;0.03;0.03;;;11.80;99.90;;;;;;5057968;28;20047;-66
2024/01/02 11:20:39;;;;;;;0.35;0.20;;;11.80;99.90;;;;;;5061411;28;20044;-66
2024/01/02 11:23:13;;;;;;;0.00;0.00;;;11.70;99.90;;;;;;5056805;28;20400;-65
2024/01/02 11:25:59;;;;;;;0.00;0.00;;;11.60;99.90;;;;;;5053897;28;20453;-65
2024/01/02 11:28:25;;;;;;;0.00;0.00;;;11.60;99.90;;;;;;5056080;28;20039;-65
2024/01/02 11:30:53;;;;;;;0.10;0.10;;;;;;;;;;5062051;28;20037;-65
2024/01/02 11:33:40;;;;;;;0.00;0.00;;;11.40;99.90;;;;;;5059378;28;20152;-65
2024/01/02 11:36:35;;;;;;;0.00;0.00;;;11.60;99.90;;;;;;5044642;28;20033;-64
2024/01/02 11:39:04;;;;;;;0.00;0.00;;;;;;;;;;5043332;28;20280;-65
2024/01/02 11:41:41;;;;;;;0.00;0.00;;;11.50;99.90;;;;;;5060643;28;20048;-64
2024/01/02 11:44:24;;;;;;;0.00;0.00;;;11.40;99.90;;;;;;5059211;28;20032;-64
2024/01/02 11:47:03;;;;;;;0.00;0.00;;;11.30;99.90;;;;;;5063727;28;20055;-65
2024/01/02 11:49:29;;;;;;;0.00;0.00;;;11.30;99.90;;;;;;5039701;28;20036;-64
2024/01/02 11:52:10;;;;;;;0.00;0.00;;;11.30;99.90;;;;;;5059483;28;20364;-65
2024/01/02 11:54:43;;;;;;;0.00;0.00;;;;;;;;;;5049094;28;20869;-66
2024/01/02 11:57:15;;;;;;;0.00;0.00;;;;;;;;;;5057399;28;20141;-65
2024/01/02 12:00:02;;;;;;;0.03;0.00;;;11.10;99.90;;;;;;5062573;28;20048;-65
2024/01/02 12:02:46;;;;;;;0.10;0.10;;;11.20;99.90;;;;;;5036006;28;20403;-62
2024/01/02 12:05:30;;;;;;;0.00;0.00;;;11.10;99.90;;;;;;5057360;28;20047;-62
2024/01/02 12:07:57;;;;;;;0.00;0.00;;;11.10;99.90;;;;;;5058858;28;20040;-62
2024/01/02 12:10:30;;;;;;;1.85;0.08;;;;;;;;;;5055125;28;20110;-63
2024/01/02 12:13:02;;;;;;;0.00;0.00;;;;;;;;;;5058526;28;20090;-63
2024/01/02 12:15:35;;;;;;;0.00;0.00;;;;;;;;;;5058353;28;20043;-63
2024/01/02 12:18:06;;;;;;;0.00;0.00;;;;;;;;;;5058411;28;20032;-62
2024/01/02 12:20:39;;;;;;;0.00;0.00;;;;;;;;;;5053828;28;20582;-63
2024/01/02 12:23:05;;;;;;;0.00;0.00;;;10.80;99.90;;;;;;5047581;28;20079;-65
2024/01/02 12:25:32;;;;;;;0.00;0.00;;;;;;;;;;5051483;28;20484;-65
2024/01/02 12:28:01;;;;;;;0.00;0.00;;;10.90;99.90;;;;;;5056473;28;20029;-64
2024/01/02 12:30:30;;;;;;;0.00;0.00;;;;;;;;;;5059015;28;20131;-65
2024/01/02 12:33:22;;;;;;;0.00;0.00;;;;;;;;;;5063404;28;20064;-65
2024/01/02 12:36:07;;;;;;;0.00;0.00;;;;;;;;;;5056578;28;20046;-65
2024/01/02 12:38:49;;;;;;;0.00;0.00;;;;;;;;;;5051374;28;20450;-66
2024/01/02 12:41:20;;;;;;;0.10;0.08;;;;;;;;;;5057147;28;20032;-64
2024/01/02 12:44:09;;;;;;;0.03;0.03;;;;;;;;;;5039284;28;20043;-64
2024/01/02 12:46:52;;;;;;;0.00;0.00;;;;;;;;;;5029231;28;20408;-64
2024/01/02 12:49:28;;;;;;;0.00;0.00;;;;;;;;;;5058170;28;20515;-64
2024/01/02 12:52:03;;;;;;;0.00;0.00;;;;;;;;;;5058181;28;20041;-64
2024/01/02 12:54:30;;;;;;;0.00;0.00;;;;;;;;;;5060499;28;20043;-64
2024/01/02 12:57:05;;;;;;;0.00;0.00;;;;;;;;;;5056899;28;20098;-64
2024/01/02 12:59:34;;;;;;;0.47;0.35;;;;;;;;;;5056050;28;20044;-63
2024/01/02 13:02:05;;;;;;;0.00;0.00;;;;;;;;;;5058903;28;20419;-64
2024/01/02 13:04:34;;;;;;;0.00;0.00;;;10.40;99.90;;;;;;5056030;28;20628;-64
2024/01/02 13:07:03;;;;;;;0.00;0.00;;;;;;;;;;5057647;28;20286;-63
2024/01/02 13:09:30;;;;;;;1.52;0.13;;;;;;;;;;5056145;28;20443;-64